CPX442 Details

Departure: Philadelphia International Airport (KPHL)
Arrival: Cincinnati/Northern Kentucky International Airport (KCVG)
Route: MXE PENSY J110 FLIRT J6 MRB J6 COLNS GAVNN4


Current Weather Information
KPHL 181454Z 11006KT 10SM BKN080 BKN140 06/M09 A3033 RMK AO2 SLP269 T00561094 51010
KCVG 181452Z 36006KT 10SM CLR 04/M05 A3037 RMK AO2 SLP290 T00391050 53019